Time,TemperatureF,DewpointF,PressureIn,WindDirection,WindDirectionDegrees,WindSpeedMPH,WindSpeedGustMPH,Humidity,HourlyPrecipIn,Conditions,Clouds,dailyrainin,SoftwareType,DateUTC
2013-05-11 00:03:00,63.0,58.0,29.97,SE,141,0.0,0.0,84,0.00,,,0.00,,2013-05-11 04:03:00,
2013-05-11 00:12:00,63.0,58.0,29.97,SE,141,0.0,0.0,84,0.00,,,0.00,,2013-05-11 04:12:00,
2013-05-11 00:23:00,63.0,58.0,29.97,SE,141,0.0,0.0,84,0.00,,,0.00,,2013-05-11 04:23:00,
2013-05-11 00:33:00,63.0,58.0,29.97,SE,141,0.0,0.0,84,0.00,,,0.00,,2013-05-11 04:33:00,
2013-05-11 01:02:00,61.0,57.0,29.96,SE,141,0.0,0.0,87,0.00,,,0.00,,2013-05-11 05:02:00,
2013-05-11 01:12:00,61.0,57.0,29.96,SE,141,0.0,0.0,87,0.00,,,0.00,,2013-05-11 05:12:00,
2013-05-11 01:22:00,61.0,57.0,29.96,SE,141,0.0,0.0,87,0.00,,,0.00,,2013-05-11 05:22:00,
2013-05-11 01:32:00,61.0,57.0,29.96,SE,141,0.0,0.0,86,0.00,,,0.00,,2013-05-11 05:32:00,
2013-05-11 01:42:00,61.0,57.0,29.96,SE,141,0.0,0.0,86,0.00,,,0.00,,2013-05-11 05:42:00,
2013-05-11 01:52:00,61.0,57.0,29.96,SE,141,0.0,0.0,86,0.00,,,0.00,,2013-05-11 05:52:00,
2013-05-11 02:02:00,62.0,57.0,29.95,SE,141,0.0,0.0,84,0.00,,,0.00,,2013-05-11 06:02:00,
2013-05-11 02:12:00,62.0,57.0,29.95,SE,141,0.0,0.0,84,0.00,,,0.00,,2013-05-11 06:12:00,
2013-05-11 02:22:00,62.0,57.0,29.95,SE,141,0.0,0.0,84,0.00,,,0.00,,2013-05-11 06:22:00,
2013-05-11 02:32:00,61.0,57.0,29.94,ENE,73,0.0,0.0,86,0.00,,,0.00,,2013-05-11 06:32:00,
2013-05-11 02:42:00,61.0,57.0,29.94,ENE,73,0.0,0.0,86,0.00,,,0.00,,2013-05-11 06:42:00,
2013-05-11 02:53:00,61.0,57.0,29.94,ENE,73,0.0,0.0,86,0.00,,,0.00,,2013-05-11 06:53:00,
2013-05-11 03:02:00,61.0,57.0,29.92,East,95,0.0,2.0,86,0.00,,,0.00,,2013-05-11 07:02:00,
2013-05-11 03:12:00,61.0,57.0,29.92,East,95,0.0,2.0,86,0.00,,,0.00,,2013-05-11 07:12:00,
2013-05-11 03:22:00,61.0,57.0,29.92,East,95,0.0,2.0,86,0.00,,,0.00,,2013-05-11 07:22:00,
2013-05-11 03:32:00,60.0,57.0,29.92,East,95,0.0,0.0,89,0.00,,,0.00,,2013-05-11 07:32:00,
2013-05-11 03:42:00,60.0,57.0,29.92,East,95,0.0,0.0,89,0.00,,,0.00,,2013-05-11 07:42:00,
2013-05-11 03:52:00,60.0,57.0,29.92,East,95,0.0,0.0,89,0.00,,,0.00,,2013-05-11 07:52:00,
2013-05-11 04:02:00,59.0,55.0,29.92,SE,141,0.0,2.0,87,0.00,,,0.00,,2013-05-11 08:02:00,
2013-05-11 04:12:00,59.0,55.0,29.92,SE,141,0.0,2.0,87,0.00,,,0.00,,2013-05-11 08:12:00,
2013-05-11 04:21:00,59.0,55.0,29.92,SE,141,0.0,2.0,87,0.00,,,0.00,,2013-05-11 08:21:00,
2013-05-11 04:32:00,59.0,55.0,29.90,SE,137,0.0,3.0,87,0.00,,,0.00,,2013-05-11 08:32:00,
2013-05-11 04:42:00,59.0,55.0,29.90,SE,137,0.0,3.0,87,0.00,,,0.00,,2013-05-11 08:42:00,
2013-05-11 04:52:00,59.0,55.0,29.90,SE,137,0.0,3.0,87,0.00,,,0.00,,2013-05-11 08:52:00,
2013-05-11 05:01:00,59.0,55.0,29.91,East,100,0.0,1.0,87,0.00,,,0.00,,2013-05-11 09:01:00,
2013-05-11 05:11:00,59.0,55.0,29.91,East,100,0.0,1.0,87,0.00,,,0.00,,2013-05-11 09:11:00,
2013-05-11 05:21:00,59.0,55.0,29.91,East,100,0.0,1.0,87,0.00,,,0.00,,2013-05-11 09:21:00,
2013-05-11 05:32:00,58.0,54.0,29.90,SE,130,0.0,1.0,85,0.00,,,0.00,,2013-05-11 09:32:00,
2013-05-11 05:42:00,58.0,54.0,29.90,SE,130,0.0,1.0,85,0.00,,,0.00,,2013-05-11 09:42:00,
2013-05-11 05:53:00,58.0,54.0,29.90,SE,130,0.0,1.0,85,0.00,,,0.00,,2013-05-11 09:53:00,
2013-05-11 06:03:00,58.0,54.0,29.90,SSE,151,0.0,1.0,87,0.00,,,0.00,,2013-05-11 10:03:00,
2013-05-11 06:12:00,58.0,54.0,29.90,SSE,151,0.0,1.0,87,0.00,,,0.00,,2013-05-11 10:12:00,
2013-05-11 06:22:00,58.0,54.0,29.90,SSE,151,0.0,1.0,87,0.00,,,0.00,,2013-05-11 10:22:00,
2013-05-11 06:33:00,58.0,54.0,29.91,SSE,165,0.0,0.0,86,0.00,,,0.00,,2013-05-11 10:33:00,
2013-05-11 06:42:00,58.0,54.0,29.91,SSE,165,0.0,0.0,86,0.00,,,0.00,,2013-05-11 10:42:00,
2013-05-11 06:53:00,58.0,54.0,29.91,SSE,165,0.0,0.0,86,0.00,,,0.00,,2013-05-11 10:53:00,
2013-05-11 07:02:00,58.0,53.0,29.90,SSE,164,0.0,0.0,84,0.00,,,0.00,,2013-05-11 11:02:00,
2013-05-11 07:12:00,58.0,53.0,29.90,SSE,164,0.0,0.0,84,0.00,,,0.00,,2013-05-11 11:12:00,
2013-05-11 07:22:00,58.0,53.0,29.90,SSE,164,0.0,0.0,84,0.00,,,0.00,,2013-05-11 11:22:00,
2013-05-11 07:32:00,58.0,53.0,29.90,SSE,158,0.0,0.0,84,0.00,,,0.00,,2013-05-11 11:32:00,
2013-05-11 07:42:00,58.0,53.0,29.90,SSE,158,0.0,0.0,84,0.00,,,0.00,,2013-05-11 11:42:00,
2013-05-11 07:52:00,58.0,53.0,29.90,SSE,158,0.0,0.0,84,0.00,,,0.00,,2013-05-11 11:52:00,
2013-05-11 08:01:00,57.0,54.0,29.91,SSE,158,0.0,0.0,90,0.00,,,0.00,,2013-05-11 12:01:00,
2013-05-11 08:11:00,57.0,54.0,29.91,SSE,158,0.0,0.0,90,0.00,,,0.00,,2013-05-11 12:11:00,
2013-05-11 08:22:00,57.0,54.0,29.91,SSE,158,0.0,0.0,90,0.00,,,0.00,,2013-05-11 12:22:00,
2013-05-11 08:32:00,57.0,55.0,29.92,SSE,158,0.0,0.0,93,0.00,,,0.00,,2013-05-11 12:32:00,
2013-05-11 08:42:00,57.0,55.0,29.92,SSE,158,0.0,0.0,93,0.00,,,0.00,,2013-05-11 12:42:00,
2013-05-11 08:52:00,57.0,55.0,29.92,SSE,158,0.0,0.0,93,0.00,,,0.00,,2013-05-11 12:52:00,
2013-05-11 09:02:00,59.0,56.0,29.91,SSE,158,0.0,0.0,90,0.00,,,0.00,,2013-05-11 13:02:00,
2013-05-11 09:11:00,59.0,56.0,29.91,SSE,158,0.0,0.0,90,0.00,,,0.00,,2013-05-11 13:11:00,
2013-05-11 09:21:00,59.0,56.0,29.91,SSE,158,0.0,0.0,90,0.00,,,0.00,,2013-05-11 13:21:00,
2013-05-11 09:32:00,60.0,57.0,29.91,SSE,158,0.0,0.0,90,0.00,,,0.00,,2013-05-11 13:32:00,
2013-05-11 09:42:00,60.0,57.0,29.91,SSE,158,0.0,0.0,90,0.00,,,0.00,,2013-05-11 13:42:00,
2013-05-11 09:52:00,60.0,57.0,29.91,SSE,158,0.0,0.0,90,0.00,,,0.00,,2013-05-11 13:52:00,
2013-05-11 10:02:00,62.0,58.0,29.91,SSE,158,0.0,0.0,87,0.00,,,0.00,,2013-05-11 14:02:00,
2013-05-11 10:11:00,62.0,58.0,29.91,SSE,158,0.0,0.0,87,0.00,,,0.00,,2013-05-11 14:11:00,
2013-05-11 10:21:00,62.0,58.0,29.91,SSE,158,0.0,0.0,87,0.00,,,0.00,,2013-05-11 14:21:00,
2013-05-11 10:32:00,64.0,59.0,29.91,SSE,158,0.0,0.0,83,0.00,,,0.00,,2013-05-11 14:32:00,
2013-05-11 10:42:00,64.0,59.0,29.91,SSE,158,0.0,0.0,83,0.00,,,0.00,,2013-05-11 14:42:00,
2013-05-11 10:52:00,64.0,59.0,29.91,SSE,158,0.0,0.0,83,0.00,,,0.00,,2013-05-11 14:52:00,
2013-05-11 11:01:00,66.0,59.0,29.92,SSE,158,0.0,0.0,79,0.00,,,0.00,,2013-05-11 15:01:00,
2013-05-11 11:11:00,66.0,59.0,29.92,SSE,158,0.0,0.0,79,0.00,,,0.00,,2013-05-11 15:11:00,
2013-05-11 11:22:00,66.0,59.0,29.92,SSE,158,0.0,0.0,79,0.00,,,0.00,,2013-05-11 15:22:00,
2013-05-11 11:32:00,67.0,57.0,29.92,SSW,198,0.0,0.0,71,0.00,,,0.00,,2013-05-11 15:32:00,
2013-05-11 11:43:00,67.0,57.0,29.92,SSW,198,0.0,0.0,71,0.00,,,0.00,,2013-05-11 15:43:00,
2013-05-11 11:53:00,67.0,57.0,29.92,SSW,198,0.0,0.0,71,0.00,,,0.00,,2013-05-11 15:53:00,
2013-05-11 12:03:00,67.0,58.0,29.91,SSW,198,0.0,0.0,72,0.00,,,0.00,,2013-05-11 16:03:00,
2013-05-11 12:12:00,67.0,58.0,29.91,SSW,198,0.0,0.0,72,0.00,,,0.00,,2013-05-11 16:12:00,
2013-05-11 12:23:00,67.0,58.0,29.91,SSW,198,0.0,0.0,72,0.00,,,0.00,,2013-05-11 16:23:00,
2013-05-11 12:33:00,68.0,60.0,29.91,SSW,198,0.0,0.0,76,0.00,,,0.00,,2013-05-11 16:33:00,
2013-05-11 12:42:00,68.0,60.0,29.91,SSW,198,0.0,0.0,76,0.00,,,0.00,,2013-05-11 16:42:00,
2013-05-11 12:53:00,68.0,60.0,29.91,SSW,198,0.0,0.0,76,0.00,,,0.00,,2013-05-11 16:53:00,
2013-05-11 13:02:00,71.0,62.0,29.90,SSW,198,0.0,1.0,73,0.00,,,0.00,,2013-05-11 17:02:00,
2013-05-11 13:12:00,71.0,62.0,29.90,SSW,198,0.0,1.0,73,0.00,,,0.00,,2013-05-11 17:12:00,
2013-05-11 13:22:00,71.0,62.0,29.90,SSW,198,0.0,1.0,73,0.00,,,0.00,,2013-05-11 17:22:00,
2013-05-11 13:32:00,69.0,60.0,29.90,SSW,198,0.0,0.0,73,0.00,,,0.00,,2013-05-11 17:32:00,
2013-05-11 13:42:00,69.0,60.0,29.90,SSW,198,0.0,0.0,73,0.00,,,0.00,,2013-05-11 17:42:00,
2013-05-11 13:52:00,69.0,60.0,29.90,SSW,198,0.0,0.0,73,0.00,,,0.00,,2013-05-11 17:52:00,
2013-05-11 14:01:00,67.0,64.0,29.90,NW,315,0.0,0.0,89,0.01,,,0.01,,2013-05-11 18:01:00,
2013-05-11 14:12:00,67.0,64.0,29.90,NW,315,0.0,0.0,89,0.01,,,0.01,,2013-05-11 18:12:00,
2013-05-11 14:21:00,67.0,64.0,29.90,NW,315,0.0,0.0,89,0.01,,,0.01,,2013-05-11 18:21:00,
2013-05-11 14:32:00,67.0,61.0,29.89,NW,315,0.0,1.0,82,0.01,,,0.01,,2013-05-11 18:32:00,
2013-05-11 14:42:00,67.0,61.0,29.89,NW,315,0.0,1.0,82,0.01,,,0.01,,2013-05-11 18:42:00,
2013-05-11 14:52:00,67.0,61.0,29.89,NW,315,0.0,1.0,82,0.01,,,0.01,,2013-05-11 18:52:00,
2013-05-11 15:02:00,68.0,61.0,29.88,SW,234,0.0,3.0,79,0.00,,,0.01,,2013-05-11 19:02:00,
2013-05-11 15:11:00,68.0,61.0,29.88,SW,234,0.0,3.0,79,0.00,,,0.01,,2013-05-11 19:11:00,
2013-05-11 15:22:00,68.0,61.0,29.88,SW,234,0.0,3.0,79,0.00,,,0.01,,2013-05-11 19:22:00,
2013-05-11 15:32:00,70.0,61.0,29.87,East,80,1.0,5.0,72,0.00,,,0.01,,2013-05-11 19:32:00,
2013-05-11 15:42:00,70.0,61.0,29.87,East,80,1.0,5.0,72,0.00,,,0.01,,2013-05-11 19:42:00,
2013-05-11 15:53:00,70.0,61.0,29.87,East,80,1.0,5.0,72,0.00,,,0.01,,2013-05-11 19:53:00,
2013-05-11 16:02:00,69.0,60.0,29.86,ESE,106,2.0,5.0,74,0.00,,,0.01,,2013-05-11 20:02:00,
2013-05-11 16:12:00,69.0,60.0,29.86,ESE,106,2.0,5.0,74,0.00,,,0.01,,2013-05-11 20:12:00,
2013-05-11 16:22:00,69.0,60.0,29.86,ESE,106,2.0,5.0,74,0.00,,,0.01,,2013-05-11 20:22:00,
2013-05-11 16:32:00,70.0,61.0,29.85,ESE,109,2.0,6.0,73,0.00,,,0.01,,2013-05-11 20:32:00,
2013-05-11 16:42:00,70.0,61.0,29.85,ESE,109,2.0,6.0,73,0.00,,,0.01,,2013-05-11 20:42:00,
2013-05-11 16:52:00,70.0,61.0,29.85,ESE,109,2.0,6.0,73,0.00,,,0.01,,2013-05-11 20:52:00,
2013-05-11 17:02:00,70.0,61.0,29.85,ESE,109,2.0,6.0,73,0.00,,,0.01,,2013-05-11 21:02:00,
2013-05-11 17:11:00,70.0,61.0,29.85,ESE,109,2.0,6.0,73,0.00,,,0.01,,2013-05-11 21:11:00,
2013-05-11 17:33:00,71.0,60.0,29.83,ESE,113,1.0,4.0,69,0.00,,,0.01,,2013-05-11 21:33:00,
2013-05-11 17:43:00,71.0,60.0,29.83,ESE,113,1.0,4.0,69,0.00,,,0.01,,2013-05-11 21:43:00,
2013-05-11 17:53:00,71.0,60.0,29.83,ESE,113,1.0,4.0,69,0.00,,,0.01,,2013-05-11 21:53:00,
2013-05-11 18:02:00,70.0,59.0,29.84,East,96,2.0,5.0,67,0.00,,,0.01,,2013-05-11 22:02:00,
2013-05-11 18:13:00,70.0,59.0,29.84,East,96,2.0,5.0,67,0.00,,,0.01,,2013-05-11 22:13:00,
2013-05-11 18:23:00,70.0,59.0,29.84,East,96,2.0,5.0,67,0.00,,,0.01,,2013-05-11 22:23:00,
2013-05-11 18:33:00,65.0,62.0,29.85,NW,323,1.0,5.0,89,0.11,,,0.12,,2013-05-11 22:33:00,
2013-05-11 18:42:00,65.0,62.0,29.85,NW,323,1.0,5.0,89,0.11,,,0.12,,2013-05-11 22:42:00,
2013-05-11 18:52:00,65.0,62.0,29.85,NW,323,1.0,5.0,89,0.11,,,0.12,,2013-05-11 22:52:00,
2013-05-11 19:02:00,60.0,59.0,29.86,North,352,0.0,0.0,98,0.12,,,0.13,,2013-05-11 23:02:00,
2013-05-11 19:12:00,60.0,59.0,29.86,North,352,0.0,0.0,98,0.12,,,0.13,,2013-05-11 23:12:00,
2013-05-11 19:22:00,60.0,59.0,29.86,North,352,0.0,0.0,98,0.12,,,0.13,,2013-05-11 23:22:00,
2013-05-11 19:32:00,60.0,59.0,29.86,North,352,0.0,0.0,98,0.12,,,0.13,,2013-05-11 23:32:00,
2013-05-11 20:01:00,59.0,59.0,29.87,North,352,0.0,0.0,100,0.00,,,0.13,,2013-05-12 00:01:00,
2013-05-11 20:12:00,59.0,59.0,29.87,North,352,0.0,0.0,100,0.00,,,0.13,,2013-05-12 00:12:00,
2013-05-11 20:21:00,59.0,59.0,29.87,North,352,0.0,0.0,100,0.00,,,0.13,,2013-05-12 00:21:00,
2013-05-11 20:32:00,59.0,59.0,29.87,North,352,0.0,0.0,100,0.00,,,0.13,,2013-05-12 00:32:00,
2013-05-11 20:42:00,59.0,59.0,29.87,North,352,0.0,0.0,100,0.00,,,0.13,,2013-05-12 00:42:00,
2013-05-11 20:52:00,59.0,59.0,29.87,North,352,0.0,0.0,100,0.00,,,0.13,,2013-05-12 00:52:00,
2013-05-11 21:01:00,58.0,58.0,29.87,North,352,0.0,0.0,100,-99.99,,,-99.99,,2013-05-12 01:01:00,
2013-05-11 21:11:00,58.0,58.0,29.87,North,352,0.0,0.0,100,-99.99,,,-99.99,,2013-05-12 01:11:00,
2013-05-11 21:21:00,58.0,58.0,29.87,North,352,0.0,0.0,100,-99.99,,,-99.99,,2013-05-12 01:21:00,
2013-05-11 21:32:00,58.0,58.0,29.85,North,352,0.0,0.0,100,-99.99,,,-99.99,,2013-05-12 01:32:00,
2013-05-11 21:42:00,58.0,58.0,29.85,North,352,0.0,0.0,100,-99.99,,,-99.99,,2013-05-12 01:42:00,
2013-05-11 21:52:00,58.0,58.0,29.85,North,352,0.0,0.0,100,-99.99,,,-99.99,,2013-05-12 01:52:00,
2013-05-11 22:01:00,57.0,57.0,29.86,North,352,0.0,0.0,100,0.00,,,-99.99,,2013-05-12 02:01:00,
2013-05-11 22:11:00,57.0,57.0,29.86,North,352,0.0,0.0,100,0.00,,,-99.99,,2013-05-12 02:11:00,
2013-05-11 22:22:00,57.0,57.0,29.86,North,352,0.0,0.0,100,0.00,,,-99.99,,2013-05-12 02:22:00,
2013-05-11 22:32:00,57.0,57.0,29.86,North,352,0.0,0.0,100,0.00,,,-99.99,,2013-05-12 02:32:00,
2013-05-11 22:42:00,57.0,57.0,29.86,North,352,0.0,0.0,100,0.00,,,-99.99,,2013-05-12 02:42:00,
2013-05-11 22:52:00,57.0,57.0,29.86,North,352,0.0,0.0,100,0.00,,,-99.99,,2013-05-12 02:52:00,
2013-05-11 23:01:00,56.0,56.0,29.88,North,352,0.0,0.0,100,0.00,,,-99.99,,2013-05-12 03:01:00,
2013-05-11 23:11:00,56.0,56.0,29.88,North,352,0.0,0.0,100,0.00,,,-99.99,,2013-05-12 03:11:00,
2013-05-11 23:22:00,56.0,56.0,29.88,North,352,0.0,0.0,100,0.00,,,-99.99,,2013-05-12 03:22:00,
2013-05-11 23:33:00,56.0,56.0,29.88,SSW,193,0.0,1.0,100,0.00,,,-99.99,,2013-05-12 03:33:00,
2013-05-11 23:43:00,56.0,56.0,29.88,SSW,193,0.0,1.0,100,0.00,,,-99.99,,2013-05-12 03:43:00,
2013-05-11 23:53:00,56.0,56.0,29.88,SSW,193,0.0,1.0,100,0.00,,,-99.99,,2013-05-12 03:53:00,